Ponta de Pedras, Brazil
Current Conditions -  °F | °C
As of 5:00 PM on Friday 31 Oct 2014 (Local Time) from SBBE Reporting Station
Few Clouds Few Clouds  
Wind Chill: 90°   Ceiling: Unl
Heat Index: 93°   Visibility: 6mi
Dew Point: 68°   Wind: 15mph
Humidity: 49%   Direction: 50°NE
Pressure: 29.77"   Gusts: NA
Location:  1.39°S, 48.87°W
Report Text: SBBE 312000Z 05013KT 9999 FEW035 32/20 Q1008
Loading
Personal Weather Stations






























Interactive Weather Map
Tropical Storm Tracking
New forecast layout! Learn more

10-Day Weather Forecast

Advertisements
Track Severe Weather on mobile